KCFV/CFV METAR and TAF weather

Enter ICAO airport designator
Station Type Date Time Source
KCFV METAR 2018/12/12 16:52 UTC NOAA

KCFV 121652Z AUTO 11003KT 10SM CLR 08/00 A2994 RMK AO2 SLP140 T00780000


Station Type Date Time Source
KCFV Decoded METAR 2018/12/12 16:52 UTC NOAA

COFFEYVILLE MUNICIPAL AIRPORT , KS, United States (KCFV) 37-05N 95-34W 225M
Dec 12, 2018 - 11:52 AM EST / 2018.12.12 1652 UTC
Wind: from the ESE (110 degrees) at 3 MPH (3 KT):0
Visibility: 10 mile(s):0
Sky conditions: clear
Temperature: 46.0 F (7.8 C)
Dew Point: 32.0 F (0.0 C)
Relative Humidity: 57%
Pressure (altimeter): 29.94 in. Hg (1013 hPa)
ob: KCFV 121652Z AUTO 11003KT 10SM CLR 08/00 A2994 RMK AO2 SLP140 T00780000
cycle: 17

Station Type Date Time Source
KCFV TAF UTC NOAA

Error!


Example: see airport list